Gunilla — SERW — position and weather

sailwx.info

Track history (hours):
 
Tides and Currents Weather Stations Pressure Air Temp Water Temp Dewpoint Dewpoint Depression Visibility Wind Speed Wind Dir Waves Ship Positions

Gunilla (Sweden)

Ship's website: http://www.gunilla.nu/engelsk/frameset_english.htm

Last reported at 2019-Sep-17 00:40 UTC. Time now 2019-Sep-20 10:35 UTC.
Position N 47°24' W 007°16'.

Length 49.4 m; beam 8.4 m; draft 2.7 m.

Type: . MMSI: 265318000.

Date/timePositionNaut miles runAvg speedWind from/ knotsBaromVisibWave heightAir tempDewpointWater temp
2019-Sep-17 00:40N 47°24' W 007°16'2 6.1
2019-Sep-17 00:18N 47°25' W 007°13'2 6.3
2019-Sep-17 00:00N 47°26' W 007°11'3 6.2
2019-Sep-16 23:29N 47°28' W 007°07'3 6.0
2019-Sep-16 22:55N 47°29' W 007°02'3 6.3
2019-Sep-16 22:27N 47°31' W 006°58'3 6.0
2019-Sep-16 22:00N 47°33' W 006°55'3 5.7
2019-Sep-16 21:25N 47°34' W 006°51'3 6.4
2019-Sep-16 21:00N 47°35' W 006°47'4 7.5
2019-Sep-16 20:30N 47°38' W 006°43'4 7.0
2019-Sep-16 19:58N 47°40' W 006°39'3 6.6
2019-Sep-16 19:30N 47°43' W 006°36'3 6.1
2019-Sep-16 19:00N 47°45' W 006°34'3 5.4
2019-Sep-16 18:25N 47°48' W 006°31'2 5.8
2019-Sep-16 18:00N 47°49' W 006°28'3 5.2
2019-Sep-16 17:28N 47°51' W 006°25'3 5.5
2019-Sep-16 17:00N 47°53' W 006°22'2 4.5
2019-Sep-16 16:29N 47°55' W 006°20'3 4.9
2019-Sep-16 15:55N 47°56' W 006°17'2 4.7
2019-Sep-16 15:30N 47°57' W 006°14'2 4.9
2019-Sep-16 15:00N 47°59' W 006°11'3 5.2
2019-Sep-16 14:30N 48°00' W 006°08'3 6.6
2019-Sep-16 14:00N 48°02' W 006°04'3 6.7
2019-Sep-16 13:30N 48°05' W 006°00'3 6.6
2019-Sep-16 13:00N 48°07' W 005°57'3 6.4
2019-Sep-16 12:30N 48°09' W 005°54'3 6.8
2019-Sep-16 12:00N 48°11' W 005°50'4 7.6
2019-Sep-16 11:25N 48°15' W 005°45'3 8.0
2019-Sep-16 11:00N 48°17' W 005°42'4 8.1
2019-Sep-16 10:28N 48°21' W 005°38'5 8.0
2019-Sep-16 09:52N 48°24' W 005°33'9 7.8
2019-Sep-16 08:42N 48°31' W 005°24'10 6.7
2019-Sep-16 07:13N 48°39' W 005°15'3 5.7
2019-Sep-16 06:46N 48°40' W 005°11'2 5.5
2019-Sep-16 06:29N 48°41' W 005°10'2 4.9
2019-Sep-16 06:00N 48°43' W 005°07'3 4.5
2019-Sep-16 05:23N 48°44' W 005°04'2 4.4
2019-Sep-16 05:00N 48°46' W 005°02'2 4.5
2019-Sep-16 04:30N 48°47' W 004°59'2 4.7
2019-Sep-16 04:00N 48°49' W 004°57'2 4.9
2019-Sep-16 03:30N 48°51' W 004°54'3 5.3
2019-Sep-16 03:00N 48°53' W 004°52'3 5.8
2019-Sep-16 02:30N 48°55' W 004°49'3 6.2
2019-Sep-16 02:00N 48°57' W 004°45'3 7.0
2019-Sep-16 01:30N 48°59' W 004°42'4 7.6
2019-Sep-16 01:00N 49°02' W 004°37'4 8.3
2019-Sep-16 00:30N 49°04' W 004°32'4 8.9
2019-Sep-16 00:00N 49°07' W 004°26'4 8.8
2019-Sep-15 23:30N 49°09' W 004°21'4 8.5
2019-Sep-15 23:00N 49°12' W 004°16'4 8.5
2019-Sep-15 22:30N 49°14' W 004°11'4 8.1
2019-Sep-15 22:00N 49°17' W 004°06'4 7.7
2019-Sep-15 21:30N 49°19' W 004°01'4 7.1
2019-Sep-15 21:00N 49°22' W 003°57'3 6.5
2019-Sep-15 20:30N 49°24' W 003°53'3 6.2
2019-Sep-15 20:00N 49°26' W 003°50'3 5.7
2019-Sep-15 19:30N 49°28' W 003°47'3 5.5
2019-Sep-15 19:00N 49°30' W 003°44'3 5.2
2019-Sep-15 18:30N 49°32' W 003°42'1 2.9
2019-Sep-15 18:00N 49°34' W 003°41'1 2.9
2019-Sep-15 17:30N 49°35' W 003°40'1 2.8
2019-Sep-15 17:00N 49°36' W 003°39'2 3.7
2019-Sep-15 16:30N 49°38' W 003°38'2 3.7
2019-Sep-15 16:00N 49°40' W 003°37'2 3.7
2019-Sep-15 15:29N 49°41' W 003°35'2 3.6
2019-Sep-15 15:00N 49°43' W 003°34'4 7.2
2019-Sep-15 14:31N 49°45' W 003°30'4 7.3
2019-Sep-15 14:00N 49°48' W 003°26'4 7.4
2019-Sep-15 13:30N 49°50' W 003°22'4 7.1
2019-Sep-15 13:00N 49°53' W 003°18'3 6.9
2019-Sep-15 12:30N 49°55' W 003°14'4 6.8
2019-Sep-15 11:58N 49°57' W 003°09'3 6.7
2019-Sep-15 11:30N 49°59' W 003°06'2 4.3
2019-Sep-15 11:00N 50°01' W 003°03'1 2.1
2019-Sep-15 10:29N 50°02' W 003°02'1 2.3
2019-Sep-15 10:00N 50°03' W 003°01'1 2.1
2019-Sep-15 09:30N 50°03' W 002°60'1 2.4
2019-Sep-15 09:00N 50°04' W 002°58'2 3.1
2019-Sep-15 08:12N 50°05' W 002°55'7 4.6
2019-Sep-15 06:47N 50°09' W 002°47'3 5.1
2019-Sep-15 06:16N 50°10' W 002°43'1 5.5
2019-Sep-15 06:00N 50°12' W 002°42'3 5.6
2019-Sep-15 05:28N 50°13' W 002°38'3 6.4
2019-Sep-15 04:57N 50°15' W 002°33'3 6.9
2019-Sep-15 04:30N 50°16' W 002°29'4 7.5
2019-Sep-15 03:59N 50°17' W 002°23'4 8.2
2019-Sep-15 03:30N 50°18' W 002°17'4 8.6
2019-Sep-15 03:01N 50°19' W 002°11'5 9.1
2019-Sep-15 02:30N 50°20' W 002°04'5 9.3
2019-Sep-15 02:00N 50°22' W 001°57'5 9.2
2019-Sep-15 01:30N 50°23' W 001°50'5 9.1
2019-Sep-15 01:00N 50°25' W 001°43'4 8.5
2019-Sep-15 00:31N 50°26' W 001°37'4 7.7
2019-Sep-15 00:00N 50°28' W 001°32'3 6.7
2019-Sep-14 23:30N 50°29' W 001°27'3 5.8
2019-Sep-14 23:00N 50°30' W 001°22'2 4.8
2019-Sep-14 22:30N 50°30' W 001°19'2 3.8
2019-Sep-14 22:00N 50°31' W 001°16'2 3.5
2019-Sep-14 21:30N 50°32' W 001°13'2 3.0
2019-Sep-14 21:00N 50°32' W 001°11'1 2.8
2019-Sep-14 20:30N 50°33' W 001°09'2 3.4
2019-Sep-14 20:00N 50°34' W 001°07'2 3.7
2019-Sep-14 19:31N 50°36' W 001°06'2 3.8
2019-Sep-14 19:00N 50°38' W 001°05'2 4.3
2019-Sep-14 18:30N 50°40' W 001°04'2 3.9
2019-Sep-14 18:00N 50°42' W 001°02'3 5.7
2019-Sep-14 17:31N 50°44' W 001°04'3 5.9
2019-Sep-14 17:01N 50°47' W 001°06'1 1.6
2019-Sep-14 16:27N 50°48' W 001°07'0 0.0
2019-Sep-14 16:00N 50°48' W 001°07'0 0.0
2019-Sep-14 15:30N 50°48' W 001°07'0 0.0
2019-Sep-14 15:00N 50°48' W 001°07'0 0.0
2019-Sep-14 14:30N 50°48' W 001°07'0 0.0
2019-Sep-14 14:00N 50°48' W 001°07'0 0.0
2019-Sep-14 13:30N 50°48' W 001°07'0 0.0
2019-Sep-14 13:00N 50°48' W 001°07'0 0.0
2019-Sep-14 12:30N 50°48' W 001°07'0 0.0
2019-Sep-14 12:00N 50°48' W 001°07'0 0.0
2019-Sep-14 11:30N 50°48' W 001°07'0 0.0
2019-Sep-14 11:00N 50°48' W 001°07'0 0.0
2019-Sep-14 10:30N 50°48' W 001°07'0 0.0
2019-Sep-14 10:00N 50°48' W 001°07'0 0.0
2019-Sep-14 09:30N 50°48' W 001°07'0 0.0
2019-Sep-14 09:00N 50°48' W 001°07'0 0.0
2019-Sep-14 08:30N 50°48' W 001°07'0 0.0
2019-Sep-14 08:00N 50°48' W 001°07'0 0.0
2019-Sep-14 07:30N 50°48' W 001°07'0 0.0
2019-Sep-14 07:00N 50°48' W 001°07'0 0.0
2019-Sep-14 06:30N 50°48' W 001°07'0 0.0
2019-Sep-14 06:00N 50°48' W 001°07'0 0.0
2019-Sep-14 05:30N 50°48' W 001°07'0 0.0
2019-Sep-14 05:00N 50°48' W 001°07'0 0.0
2019-Sep-14 04:30N 50°48' W 001°07'0 0.0
2019-Sep-14 04:00N 50°48' W 001°07'0 0.0
2019-Sep-14 03:30N 50°48' W 001°07'0 0.0
2019-Sep-14 03:00N 50°48' W 001°07'0 0.0
2019-Sep-14 02:30N 50°48' W 001°07'0 0.0
2019-Sep-14 02:00N 50°48' W 001°07'0 0.0
2019-Sep-14 01:30N 50°48' W 001°07'0 0.0
2019-Sep-14 01:00N 50°48' W 001°07'0 0.0
2019-Sep-14 00:30N 50°48' W 001°07'0 0.0
2019-Sep-14 00:00N 50°48' W 001°07'0 0.0
2019-Sep-13 23:30N 50°48' W 001°07'0 0.0
2019-Sep-13 23:00N 50°48' W 001°07'0 0.0
2019-Sep-13 22:30N 50°48' W 001°07'0 0.0
2019-Sep-13 22:00N 50°48' W 001°07'0 0.0
2019-Sep-13 21:30N 50°48' W 001°07'0 0.0
2019-Sep-13 21:00N 50°48' W 001°07'0 0.0
2019-Sep-13 20:30N 50°48' W 001°07'0 0.0
2019-Sep-13 20:00N 50°48' W 001°07'0 0.0
2019-Sep-13 19:30N 50°48' W 001°07'0 0.0
2019-Sep-13 19:00N 50°48' W 001°07'0 0.0
2019-Sep-13 18:30N 50°48' W 001°07'0 0.0
2019-Sep-13 18:00N 50°48' W 001°07'0 0.0
2019-Sep-13 17:30N 50°48' W 001°07'0 0.0
2019-Sep-13 17:00N 50°48' W 001°07'0 0.0
2019-Sep-13 16:30N 50°48' W 001°07'0 0.0
2019-Sep-13 16:00N 50°48' W 001°07'0 0.0
2019-Sep-13 15:30N 50°48' W 001°07'0 0.0
2019-Sep-13 15:00N 50°48' W 001°07'0 0.0
2019-Sep-13 14:30N 50°48' W 001°07'0 0.0
2019-Sep-13 14:00N 50°48' W 001°07'0 0.0
2019-Sep-13 13:30N 50°48' W 001°07'0 0.0
2019-Sep-13 13:00N 50°48' W 001°07'0 0.0
2019-Sep-13 12:30N 50°48' W 001°07'0 0.0
2019-Sep-13 12:00N 50°48' W 001°07'0 0.0
2019-Sep-13 11:30N 50°48' W 001°07'0 0.0
2019-Sep-13 11:00N 50°48' W 001°07'0 0.0
2019-Sep-13 10:30N 50°48' W 001°07'0 0.0
2019-Sep-13 10:00N 50°48' W 001°07'0 0.0
2019-Sep-13 09:30N 50°48' W 001°07'0 0.0
2019-Sep-13 09:00N 50°48' W 001°07'0 0.0
2019-Sep-13 08:30N 50°48' W 001°07'0 0.0
2019-Sep-13 08:00N 50°48' W 001°07'0 0.0
2019-Sep-13 07:30N 50°48' W 001°07'0 0.0
2019-Sep-13 07:00N 50°48' W 001°07'0 0.0
2019-Sep-13 06:30N 50°48' W 001°07'0 0.0
2019-Sep-13 06:00N 50°48' W 001°07'0 0.0
2019-Sep-13 05:30N 50°48' W 001°07'0 0.0
2019-Sep-13 05:00N 50°48' W 001°07'0 0.0
2019-Sep-13 04:30N 50°48' W 001°07'0 0.0
2019-Sep-13 04:00N 50°48' W 001°07'0 0.0
2019-Sep-13 03:30N 50°48' W 001°07'0 0.0
2019-Sep-13 03:00N 50°48' W 001°07'0 0.0
2019-Sep-13 02:00N 50°48' W 001°07'0 0.0
2019-Sep-13 01:30N 50°48' W 001°07'0 0.0
2019-Sep-13 01:00N 50°48' W 001°07'0 0.0
2019-Sep-13 00:30N 50°48' W 001°07'0 0.0
2019-Sep-13 00:00N 50°48' W 001°07'0 0.0
2019-Sep-12 23:30N 50°48' W 001°07'0 0.0
2019-Sep-12 23:00N 50°48' W 001°07'0 0.0
2019-Sep-12 22:30N 50°48' W 001°07'0 0.0
2019-Sep-12 22:00N 50°48' W 001°07'0 0.0
2019-Sep-12 21:30N 50°48' W 001°07'0 0.0
2019-Sep-12 21:00N 50°48' W 001°07'0 0.0
2019-Sep-12 20:30N 50°48' W 001°07'0 0.0
2019-Sep-12 20:00N 50°48' W 001°07'0 0.0
2019-Sep-12 19:30N 50°48' W 001°07'0 0.0
2019-Sep-12 19:00N 50°48' W 001°07'0 0.0
2019-Sep-12 18:27N 50°48' W 001°07'0 0.0
2019-Sep-12 18:00N 50°48' W 001°07'0 0.0
2019-Sep-12 17:30N 50°48' W 001°07'0 0.0
2019-Sep-12 17:00N 50°48' W 001°07'0 0.0
2019-Sep-12 16:30N 50°48' W 001°07'0 0.0
2019-Sep-12 16:00N 50°48' W 001°07'0 0.0
2019-Sep-12 15:30N 50°48' W 001°07'0 0.0
2019-Sep-12 14:57N 50°48' W 001°07'0 0.0
2019-Sep-12 14:30N 50°48' W 001°07'0 0.0
2019-Sep-12 14:00N 50°48' W 001°07'0 0.0
2019-Sep-12 13:30N 50°48' W 001°07'0 0.0
2019-Sep-12 13:00N 50°48' W 001°07'0 0.0
2019-Sep-12 12:30N 50°48' W 001°07'0 0.0
2019-Sep-12 12:00N 50°48' W 001°07'0 0.0
2019-Sep-12 11:30N 50°48' W 001°07'0 0.0
2019-Sep-12 11:00N 50°48' W 001°07'0 0.0
2019-Sep-12 10:30N 50°48' W 001°07'0 0.0
2019-Sep-12 10:00N 50°48' W 001°07'0 0.0
2019-Sep-12 09:30N 50°48' W 001°07'0 0.0
2019-Sep-12 09:00N 50°48' W 001°07'0 0.0
2019-Sep-12 08:30N 50°48' W 001°07'0 0.0
2019-Sep-12 08:00N 50°48' W 001°07'0 0.0
2019-Sep-12 07:30N 50°48' W 001°07'0 0.0
2019-Sep-12 07:00N 50°48' W 001°07'0 0.0
2019-Sep-12 06:30N 50°48' W 001°07'0 0.0
2019-Sep-12 06:00N 50°48' W 001°07'0 0.0
2019-Sep-12 05:30N 50°48' W 001°07'0 0.0
2019-Sep-12 05:00N 50°48' W 001°07'0 0.0
2019-Sep-12 04:30N 50°48' W 001°07'0 0.0
2019-Sep-12 04:00N 50°48' W 001°07'0 0.0
2019-Sep-12 03:30N 50°48' W 001°07'0 0.0
2019-Sep-12 03:00N 50°48' W 001°07'0 0.0
2019-Sep-12 02:30N 50°48' W 001°07'0 0.0
2019-Sep-12 02:00N 50°48' W 001°07'0 0.0
2019-Sep-12 01:30N 50°48' W 001°07'0 0.0
2019-Sep-12 01:00N 50°48' W 001°07'0 0.0
2019-Sep-12 00:30N 50°48' W 001°07'0 0.0
2019-Sep-12 00:00N 50°48' W 001°07'0 0.0
2019-Sep-11 23:30N 50°48' W 001°07'0 0.0
2019-Sep-11 23:00N 50°48' W 001°07'0 0.0
2019-Sep-11 22:30N 50°48' W 001°07'0 0.0
2019-Sep-11 22:00N 50°48' W 001°07'0 0.0
2019-Sep-11 21:30N 50°48' W 001°07'0 0.0
2019-Sep-11 21:00N 50°48' W 001°07'0 0.0
2019-Sep-11 20:30N 50°48' W 001°07'0 0.0
2019-Sep-11 20:00N 50°48' W 001°07'0 0.0
2019-Sep-11 19:30N 50°48' W 001°07'0 0.0
2019-Sep-11 19:00N 50°48' W 001°07'0 0.0
2019-Sep-11 18:30N 50°48' W 001°07'0 0.0
2019-Sep-11 18:00N 50°48' W 001°07'0 0.0
2019-Sep-11 17:30N 50°48' W 001°07'0 0.0
2019-Sep-11 17:00N 50°48' W 001°07'0 0.0
2019-Sep-11 16:30N 50°48' W 001°07'0 0.0
2019-Sep-11 16:00N 50°48' W 001°07'0 0.0
2019-Sep-11 15:30N 50°48' W 001°07'0 0.0
2019-Sep-11 15:00N 50°48' W 001°07'0 0.0
2019-Sep-11 14:30N 50°48' W 001°07'0 0.0
2019-Sep-11 14:00N 50°48' W 001°07'0 0.0
2019-Sep-11 13:30N 50°48' W 001°07'0 0.0
2019-Sep-11 13:00N 50°48' W 001°07'0 0.0
2019-Sep-11 12:30N 50°48' W 001°07'0 0.0
2019-Sep-11 12:00N 50°48' W 001°07'0 0.0
2019-Sep-11 11:30N 50°48' W 001°07'0 0.0
2019-Sep-11 11:00N 50°48' W 001°07'0 0.0
2019-Sep-11 10:30N 50°48' W 001°07'0 0.0
2019-Sep-11 10:00N 50°48' W 001°07'0 0.0
2019-Sep-11 09:30N 50°48' W 001°07'0 0.0
2019-Sep-11 09:00N 50°48' W 001°07'0 0.0
2019-Sep-11 08:30N 50°48' W 001°07'0 0.0
2019-Sep-11 08:00N 50°48' W 001°07'0 0.0
2019-Sep-11 07:30N 50°48' W 001°07'0 0.0
2019-Sep-11 07:00N 50°48' W 001°07'0 0.0
2019-Sep-11 06:30N 50°48' W 001°07'0 0.0
2019-Sep-11 06:00N 50°48' W 001°07'0 0.0
2019-Sep-11 05:30N 50°48' W 001°07'0 0.0
2019-Sep-11 05:00N 50°48' W 001°07'0 0.0
2019-Sep-11 04:30N 50°48' W 001°07'0 0.0
2019-Sep-11 04:00N 50°48' W 001°07'0 0.0
2019-Sep-11 03:30N 50°48' W 001°07'0 0.0
2019-Sep-11 03:00N 50°48' W 001°07'0 0.0
2019-Sep-11 02:30N 50°48' W 001°07'0 0.0
2019-Sep-11 02:00N 50°48' W 001°07'0 0.0
2019-Sep-11 01:30N 50°48' W 001°07'0 0.0
2019-Sep-11 01:00N 50°48' W 001°07'0 0.0
2019-Sep-11 00:30N 50°48' W 001°07'0 0.0
2019-Sep-11 00:00N 50°48' W 001°07'0 0.0
2019-Sep-10 23:30N 50°48' W 001°07'0 0.0
2019-Sep-10 23:00N 50°48' W 001°07'0 0.0
2019-Sep-10 22:30N 50°48' W 001°07'0 0.0
2019-Sep-10 22:00N 50°48' W 001°07'0 0.0
2019-Sep-10 21:30N 50°48' W 001°07'0 0.0
2019-Sep-10 21:00N 50°48' W 001°07'0 0.0
2019-Sep-10 20:30N 50°48' W 001°07'0 0.0
2019-Sep-10 20:00N 50°48' W 001°07'0 0.0
2019-Sep-10 19:30N 50°48' W 001°07'0 0.0
2019-Sep-10 19:00N 50°48' W 001°07'0 0.0
2019-Sep-10 18:30N 50°48' W 001°07'0 0.0
2019-Sep-10 18:00N 50°48' W 001°07'0 0.0
2019-Sep-10 17:30N 50°48' W 001°07'0 0.0
2019-Sep-10 17:00N 50°48' W 001°07'0 0.0
2019-Sep-10 16:30N 50°48' W 001°07'0 0.0
2019-Sep-10 16:00N 50°48' W 001°07'0 0.0
2019-Sep-10 15:30N 50°48' W 001°07'0 0.0
2019-Sep-10 15:00N 50°48' W 001°07'0 0.0
2019-Sep-10 14:30N 50°48' W 001°07'0 0.0
2019-Sep-10 14:00N 50°48' W 001°07'0 0.0
2019-Sep-10 13:30N 50°48' W 001°07'0 0.0
2019-Sep-10 13:00N 50°48' W 001°07'0 0.0
2019-Sep-10 12:30N 50°48' W 001°07'0 0.0
2019-Sep-10 12:00N 50°48' W 001°07'0 0.0
2019-Sep-10 11:30N 50°48' W 001°07'0 0.0
2019-Sep-10 11:00N 50°48' W 001°07'0 0.0
2019-Sep-10 10:30N 50°48' W 001°07'0 0.0
2019-Sep-10 10:00N 50°48' W 001°07'0 0.0
2019-Sep-10 09:30N 50°48' W 001°07'0 0.0
2019-Sep-10 09:00N 50°48' W 001°07'0 0.0
2019-Sep-10 08:30N 50°48' W 001°07'0 0.0
2019-Sep-10 08:00N 50°48' W 001°07'0 0.0
2019-Sep-10 07:30N 50°48' W 001°07'0 0.0
2019-Sep-10 07:00N 50°48' W 001°07'0 0.0
2019-Sep-10 06:30N 50°48' W 001°07'0 0.0
2019-Sep-10 06:00N 50°48' W 001°07'0 0.0
2019-Sep-10 05:30N 50°48' W 001°07'0 0.0
2019-Sep-10 05:01N 50°48' W 001°07'0 0.0
2019-Sep-10 04:30N 50°48' W 001°07'0 0.0
2019-Sep-10 04:00N 50°48' W 001°07'0 0.0
2019-Sep-10 03:30N 50°48' W 001°07'0 0.0
2019-Sep-10 03:00N 50°48' W 001°07'0 0.0
2019-Sep-10 02:30N 50°48' W 001°07'0 0.0
2019-Sep-10 02:00N 50°48' W 001°07'0 0.0
2019-Sep-10 01:30N 50°48' W 001°07'0 0.0
2019-Sep-10 01:00N 50°48' W 001°07'0 0.0
2019-Sep-10 00:30N 50°48' W 001°07'0 0.0
2019-Sep-10 00:00N 50°48' W 001°07'0 0.0
2019-Sep-09 23:30N 50°48' W 001°07'0 0.0
2019-Sep-09 23:00N 50°48' W 001°07'0 0.0
2019-Sep-09 22:31N 50°48' W 001°07'0 0.0
2019-Sep-09 22:00N 50°48' W 001°07'0 0.0
2019-Sep-09 21:30N 50°48' W 001°07'0 0.0
2019-Sep-09 21:01N 50°48' W 001°07'0 0.0
2019-Sep-09 20:30N 50°48' W 001°07'0 0.0
2019-Sep-09 20:00N 50°48' W 001°07'0 0.0
2019-Sep-09 19:30N 50°48' W 001°07'0 0.0
2019-Sep-09 19:00N 50°48' W 001°07'0 0.0
2019-Sep-09 18:30N 50°48' W 001°07'0 0.0
2019-Sep-09 18:01N 50°48' W 001°07'0 0.0
2019-Sep-09 17:30N 50°48' W 001°07'0 0.0
2019-Sep-09 17:00N 50°48' W 001°07'0 0.0
2019-Sep-09 16:30N 50°48' W 001°07'0 0.0
2019-Sep-09 16:00N 50°48' W 001°07'0 0.0
2019-Sep-09 15:30N 50°48' W 001°07'0 0.0
2019-Sep-09 15:00N 50°48' W 001°07'0 0.0
2019-Sep-09 14:30N 50°48' W 001°07'0 0.0
2019-Sep-09 14:00N 50°48' W 001°07'0 0.0
2019-Sep-09 13:30N 50°48' W 001°07'0 0.0
2019-Sep-09 13:00N 50°48' W 001°07'0 0.0
2019-Sep-09 12:30N 50°48' W 001°07'0 0.0
2019-Sep-09 12:00N 50°48' W 001°07'0 0.0
2019-Sep-09 11:30N 50°48' W 001°07'0 0.0
2019-Sep-09 11:00N 50°48' W 001°07'0 0.0
2019-Sep-09 10:30N 50°48' W 001°07'0 0.0
2019-Sep-09 10:00N 50°48' W 001°07'0 0.0
2019-Sep-09 09:30N 50°48' W 001°07'0 0.0
2019-Sep-09 09:00N 50°48' W 001°07'0 0.0
2019-Sep-09 08:30N 50°48' W 001°07'0 0.3
2019-Sep-09 08:01N 50°48' W 001°07'3 6.6
2019-Sep-09 07:30N 50°45' W 001°04'4 7.1
2019-Sep-09 07:00N 50°42' W 001°00'3 6.6
2019-Sep-09 06:29N 50°40' W 000°56'5 5.4
2019-Sep-09 05:33N 50°37' W 000°49'0 5.6
2019-Sep-09 05:29N 50°37' W 000°50'3 4.7
2019-Sep-09 04:54N 50°36' W 000°54'5 5.3
2019-Sep-09 04:01N 50°35' W 001°01'0 5.7
2019-Sep-09 04:00N 50°35' W 001°01'3 5.5
2019-Sep-09 03:30N 50°33' W 001°04'3 6.4
2019-Sep-09 02:59N 50°31' W 001°08'  
Track history (hours):
 
Tides and Currents Weather Stations Pressure Air Temp Water Temp Dewpoint Dewpoint Depression Visibility Wind Speed Wind Dir Waves Ship Positions

Gunilla (Sweden)

Ship's website: http://www.gunilla.nu/engelsk/frameset_english.htm

Last reported at 2019-Sep-17 00:40 UTC. Time now 2019-Sep-20 10:35 UTC.
Position N 47°24' W 007°16'.

Length 49.4 m; beam 8.4 m; draft 2.7 m.

Type: . MMSI: 265318000.

Date/timePositionNaut miles runAvg speedWind from/ knotsBaromVisibWave heightAir tempDewpointWater temp
2019-Sep-17 00:40N 47°24' W 007°16'2 6.1
2019-Sep-17 00:18N 47°25' W 007°13'2 6.3
2019-Sep-17 00:00N 47°26' W 007°11'3 6.2
2019-Sep-16 23:29N 47°28' W 007°07'3 6.0
2019-Sep-16 22:55N 47°29' W 007°02'3 6.3
2019-Sep-16 22:27N 47°31' W 006°58'3 6.0
2019-Sep-16 22:00N 47°33' W 006°55'3 5.7
2019-Sep-16 21:25N 47°34' W 006°51'3 6.4
2019-Sep-16 21:00N 47°35' W 006°47'4 7.5
2019-Sep-16 20:30N 47°38' W 006°43'4 7.0
2019-Sep-16 19:58N 47°40' W 006°39'3 6.6
2019-Sep-16 19:30N 47°43' W 006°36'3 6.1
2019-Sep-16 19:00N 47°45' W 006°34'3 5.4
2019-Sep-16 18:25N 47°48' W 006°31'2 5.8
2019-Sep-16 18:00N 47°49' W 006°28'3 5.2
2019-Sep-16 17:28N 47°51' W 006°25'3 5.5
2019-Sep-16 17:00N 47°53' W 006°22'2 4.5
2019-Sep-16 16:29N 47°55' W 006°20'3 4.9
2019-Sep-16 15:55N 47°56' W 006°17'2 4.7
2019-Sep-16 15:30N 47°57' W 006°14'2 4.9
2019-Sep-16 15:00N 47°59' W 006°11'3 5.2
2019-Sep-16 14:30N 48°00' W 006°08'3 6.6
2019-Sep-16 14:00N 48°02' W 006°04'3 6.7
2019-Sep-16 13:30N 48°05' W 006°00'3 6.6
2019-Sep-16 13:00N 48°07' W 005°57'3 6.4
2019-Sep-16 12:30N 48°09' W 005°54'3 6.8
2019-Sep-16 12:00N 48°11' W 005°50'4 7.6
2019-Sep-16 11:25N 48°15' W 005°45'3 8.0
2019-Sep-16 11:00N 48°17' W 005°42'4 8.1
2019-Sep-16 10:28N 48°21' W 005°38'5 8.0
2019-Sep-16 09:52N 48°24' W 005°33'9 7.8
2019-Sep-16 08:42N 48°31' W 005°24'10 6.7
2019-Sep-16 07:13N 48°39' W 005°15'3 5.7
2019-Sep-16 06:46N 48°40' W 005°11'2 5.5
2019-Sep-16 06:29N 48°41' W 005°10'2 4.9
2019-Sep-16 06:00N 48°43' W 005°07'3 4.5
2019-Sep-16 05:23N 48°44' W 005°04'2 4.4
2019-Sep-16 05:00N 48°46' W 005°02'2 4.5
2019-Sep-16 04:30N 48°47' W 004°59'2 4.7
2019-Sep-16 04:00N 48°49' W 004°57'2 4.9
2019-Sep-16 03:30N 48°51' W 004°54'3 5.3
2019-Sep-16 03:00N 48°53' W 004°52'3 5.8
2019-Sep-16 02:30N 48°55' W 004°49'3 6.2
2019-Sep-16 02:00N 48°57' W 004°45'3 7.0
2019-Sep-16 01:30N 48°59' W 004°42'4 7.6
2019-Sep-16 01:00N 49°02' W 004°37'4 8.3
2019-Sep-16 00:30N 49°04' W 004°32'4 8.9
2019-Sep-16 00:00N 49°07' W 004°26'4 8.8
2019-Sep-15 23:30N 49°09' W 004°21'4 8.5
2019-Sep-15 23:00N 49°12' W 004°16'4 8.5
2019-Sep-15 22:30N 49°14' W 004°11'4 8.1
2019-Sep-15 22:00N 49°17' W 004°06'4 7.7
2019-Sep-15 21:30N 49°19' W 004°01'4 7.1
2019-Sep-15 21:00N 49°22' W 003°57'3 6.5
2019-Sep-15 20:30N 49°24' W 003°53'3 6.2
2019-Sep-15 20:00N 49°26' W 003°50'3 5.7
2019-Sep-15 19:30N 49°28' W 003°47'3 5.5
2019-Sep-15 19:00N 49°30' W 003°44'3 5.2
2019-Sep-15 18:30N 49°32' W 003°42'1 2.9
2019-Sep-15 18:00N 49°34' W 003°41'1 2.9
2019-Sep-15 17:30N 49°35' W 003°40'1 2.8
2019-Sep-15 17:00N 49°36' W 003°39'2 3.7
2019-Sep-15 16:30N 49°38' W 003°38'2 3.7
2019-Sep-15 16:00N 49°40' W 003°37'2 3.7
2019-Sep-15 15:29N 49°41' W 003°35'2 3.6
2019-Sep-15 15:00N 49°43' W 003°34'4 7.2
2019-Sep-15 14:31N 49°45' W 003°30'4 7.3
2019-Sep-15 14:00N 49°48' W 003°26'4 7.4
2019-Sep-15 13:30N 49°50' W 003°22'4 7.1
2019-Sep-15 13:00N 49°53' W 003°18'3 6.9
2019-Sep-15 12:30N 49°55' W 003°14'4 6.8
2019-Sep-15 11:58N 49°57' W 003°09'3 6.7
2019-Sep-15 11:30N 49°59' W 003°06'2 4.3
2019-Sep-15 11:00N 50°01' W 003°03'1 2.1
2019-Sep-15 10:29N 50°02' W 003°02'1 2.3
2019-Sep-15 10:00N 50°03' W 003°01'1 2.1
2019-Sep-15 09:30N 50°03' W 002°60'1 2.4
2019-Sep-15 09:00N 50°04' W 002°58'2 3.1
2019-Sep-15 08:12N 50°05' W 002°55'7 4.6
2019-Sep-15 06:47N 50°09' W 002°47'3 5.1
2019-Sep-15 06:16N 50°10' W 002°43'1 5.5
2019-Sep-15 06:00N 50°12' W 002°42'3 5.6
2019-Sep-15 05:28N 50°13' W 002°38'3 6.4
2019-Sep-15 04:57N 50°15' W 002°33'3 6.9
2019-Sep-15 04:30N 50°16' W 002°29'4 7.5
2019-Sep-15 03:59N 50°17' W 002°23'4 8.2
2019-Sep-15 03:30N 50°18' W 002°17'4 8.6
2019-Sep-15 03:01N 50°19' W 002°11'5 9.1
2019-Sep-15 02:30N 50°20' W 002°04'5 9.3
2019-Sep-15 02:00N 50°22' W 001°57'5 9.2
2019-Sep-15 01:30N 50°23' W 001°50'5 9.1
2019-Sep-15 01:00N 50°25' W 001°43'4 8.5
2019-Sep-15 00:31N 50°26' W 001°37'4 7.7
2019-Sep-15 00:00N 50°28' W 001°32'3 6.7
2019-Sep-14 23:30N 50°29' W 001°27'3 5.8
2019-Sep-14 23:00N 50°30' W 001°22'2 4.8
2019-Sep-14 22:30N 50°30' W 001°19'2 3.8
2019-Sep-14 22:00N 50°31' W 001°16'2 3.5
2019-Sep-14 21:30N 50°32' W 001°13'2 3.0
2019-Sep-14 21:00N 50°32' W 001°11'1 2.8
2019-Sep-14 20:30N 50°33' W 001°09'2 3.4
2019-Sep-14 20:00N 50°34' W 001°07'2 3.7
2019-Sep-14 19:31N 50°36' W 001°06'2 3.8
2019-Sep-14 19:00N 50°38' W 001°05'2 4.3
2019-Sep-14 18:30N 50°40' W 001°04'2 3.9
2019-Sep-14 18:00N 50°42' W 001°02'3 5.7
2019-Sep-14 17:31N 50°44' W 001°04'3 5.9
2019-Sep-14 17:01N 50°47' W 001°06'1 1.6
2019-Sep-14 16:27N 50°48' W 001°07'0 0.0
2019-Sep-14 16:00N 50°48' W 001°07'0 0.0
2019-Sep-14 15:30N 50°48' W 001°07'0 0.0
2019-Sep-14 15:00N 50°48' W 001°07'0 0.0
2019-Sep-14 14:30N 50°48' W 001°07'0 0.0
2019-Sep-14 14:00N 50°48' W 001°07'0 0.0
2019-Sep-14 13:30N 50°48' W 001°07'0 0.0
2019-Sep-14 13:00N 50°48' W 001°07'0 0.0
2019-Sep-14 12:30N 50°48' W 001°07'0 0.0
2019-Sep-14 12:00N 50°48' W 001°07'0 0.0
2019-Sep-14 11:30N 50°48' W 001°07'0 0.0
2019-Sep-14 11:00N 50°48' W 001°07'0 0.0
2019-Sep-14 10:30N 50°48' W 001°07'0 0.0
2019-Sep-14 10:00N 50°48' W 001°07'0 0.0
2019-Sep-14 09:30N 50°48' W 001°07'0 0.0
2019-Sep-14 09:00N 50°48' W 001°07'0 0.0
2019-Sep-14 08:30N 50°48' W 001°07'0 0.0
2019-Sep-14 08:00N 50°48' W 001°07'0 0.0
2019-Sep-14 07:30N 50°48' W 001°07'0 0.0
2019-Sep-14 07:00N 50°48' W 001°07'0 0.0
2019-Sep-14 06:30N 50°48' W 001°07'0 0.0
2019-Sep-14 06:00N 50°48' W 001°07'0 0.0
2019-Sep-14 05:30N 50°48' W 001°07'0 0.0
2019-Sep-14 05:00N 50°48' W 001°07'0 0.0
2019-Sep-14 04:30N 50°48' W 001°07'0 0.0
2019-Sep-14 04:00N 50°48' W 001°07'0 0.0
2019-Sep-14 03:30N 50°48' W 001°07'0 0.0
2019-Sep-14 03:00N 50°48' W 001°07'0 0.0
2019-Sep-14 02:30N 50°48' W 001°07'0 0.0
2019-Sep-14 02:00N 50°48' W 001°07'0 0.0
2019-Sep-14 01:30N 50°48' W 001°07'0 0.0
2019-Sep-14 01:00N 50°48' W 001°07'0 0.0
2019-Sep-14 00:30N 50°48' W 001°07'0 0.0
2019-Sep-14 00:00N 50°48' W 001°07'0 0.0
2019-Sep-13 23:30N 50°48' W 001°07'0 0.0
2019-Sep-13 23:00N 50°48' W 001°07'0 0.0
2019-Sep-13 22:30N 50°48' W 001°07'0 0.0
2019-Sep-13 22:00N 50°48' W 001°07'0 0.0
2019-Sep-13 21:30N 50°48' W 001°07'0 0.0
2019-Sep-13 21:00N 50°48' W 001°07'0 0.0
2019-Sep-13 20:30N 50°48' W 001°07'0 0.0
2019-Sep-13 20:00N 50°48' W 001°07'0 0.0
2019-Sep-13 19:30N 50°48' W 001°07'0 0.0
2019-Sep-13 19:00N 50°48' W 001°07'0 0.0
2019-Sep-13 18:30N 50°48' W 001°07'0 0.0
2019-Sep-13 18:00N 50°48' W 001°07'0 0.0
2019-Sep-13 17:30N 50°48' W 001°07'0 0.0
2019-Sep-13 17:00N 50°48' W 001°07'0 0.0
2019-Sep-13 16:30N 50°48' W 001°07'0 0.0
2019-Sep-13 16:00N 50°48' W 001°07'0 0.0
2019-Sep-13 15:30N 50°48' W 001°07'0 0.0
2019-Sep-13 15:00N 50°48' W 001°07'0 0.0
2019-Sep-13 14:30N 50°48' W 001°07'0 0.0
2019-Sep-13 14:00N 50°48' W 001°07'0 0.0
2019-Sep-13 13:30N 50°48' W 001°07'0 0.0
2019-Sep-13 13:00N 50°48' W 001°07'0 0.0
2019-Sep-13 12:30N 50°48' W 001°07'0 0.0
2019-Sep-13 12:00N 50°48' W 001°07'0 0.0
2019-Sep-13 11:30N 50°48' W 001°07'0 0.0
2019-Sep-13 11:00N 50°48' W 001°07'0 0.0
2019-Sep-13 10:30N 50°48' W 001°07'0 0.0
2019-Sep-13 10:00N 50°48' W 001°07'0 0.0
2019-Sep-13 09:30N 50°48' W 001°07'0 0.0
2019-Sep-13 09:00N 50°48' W 001°07'0 0.0
2019-Sep-13 08:30N 50°48' W 001°07'0 0.0
2019-Sep-13 08:00N 50°48' W 001°07'0 0.0
2019-Sep-13 07:30N 50°48' W 001°07'0 0.0
2019-Sep-13 07:00N 50°48' W 001°07'0 0.0
2019-Sep-13 06:30N 50°48' W 001°07'0 0.0
2019-Sep-13 06:00N 50°48' W 001°07'0 0.0
2019-Sep-13 05:30N 50°48' W 001°07'0 0.0
2019-Sep-13 05:00N 50°48' W 001°07'0 0.0
2019-Sep-13 04:30N 50°48' W 001°07'0 0.0
2019-Sep-13 04:00N 50°48' W 001°07'0 0.0
2019-Sep-13 03:30N 50°48' W 001°07'0 0.0
2019-Sep-13 03:00N 50°48' W 001°07'0 0.0
2019-Sep-13 02:00N 50°48' W 001°07'0 0.0
2019-Sep-13 01:30N 50°48' W 001°07'0 0.0
2019-Sep-13 01:00N 50°48' W 001°07'0 0.0
2019-Sep-13 00:30N 50°48' W 001°07'0 0.0
2019-Sep-13 00:00N 50°48' W 001°07'0 0.0
2019-Sep-12 23:30N 50°48' W 001°07'0 0.0
2019-Sep-12 23:00N 50°48' W 001°07'0 0.0
2019-Sep-12 22:30N 50°48' W 001°07'0 0.0
2019-Sep-12 22:00N 50°48' W 001°07'0 0.0
2019-Sep-12 21:30N 50°48' W 001°07'0 0.0
2019-Sep-12 21:00N 50°48' W 001°07'0 0.0
2019-Sep-12 20:30N 50°48' W 001°07'0 0.0
2019-Sep-12 20:00N 50°48' W 001°07'0 0.0
2019-Sep-12 19:30N 50°48' W 001°07'0 0.0
2019-Sep-12 19:00N 50°48' W 001°07'0 0.0
2019-Sep-12 18:27N 50°48' W 001°07'0 0.0
2019-Sep-12 18:00N 50°48' W 001°07'0 0.0
2019-Sep-12 17:30N 50°48' W 001°07'0 0.0
2019-Sep-12 17:00N 50°48' W 001°07'0 0.0
2019-Sep-12 16:30N 50°48' W 001°07'0 0.0
2019-Sep-12 16:00N 50°48' W 001°07'0 0.0
2019-Sep-12 15:30N 50°48' W 001°07'0 0.0
2019-Sep-12 14:57N 50°48' W 001°07'0 0.0
2019-Sep-12 14:30N 50°48' W 001°07'0 0.0
2019-Sep-12 14:00N 50°48' W 001°07'0 0.0
2019-Sep-12 13:30N 50°48' W 001°07'0 0.0
2019-Sep-12 13:00N 50°48' W 001°07'0 0.0
2019-Sep-12 12:30N 50°48' W 001°07'0 0.0
2019-Sep-12 12:00N 50°48' W 001°07'0 0.0
2019-Sep-12 11:30N 50°48' W 001°07'0 0.0
2019-Sep-12 11:00N 50°48' W 001°07'0 0.0
2019-Sep-12 10:30N 50°48' W 001°07'0 0.0
2019-Sep-12 10:00N 50°48' W 001°07'0 0.0
2019-Sep-12 09:30N 50°48' W 001°07'0 0.0
2019-Sep-12 09:00N 50°48' W 001°07'0 0.0
2019-Sep-12 08:30N 50°48' W 001°07'0 0.0
2019-Sep-12 08:00N 50°48' W 001°07'0 0.0
2019-Sep-12 07:30N 50°48' W 001°07'0 0.0
2019-Sep-12 07:00N 50°48' W 001°07'0 0.0
2019-Sep-12 06:30N 50°48' W 001°07'0 0.0
2019-Sep-12 06:00N 50°48' W 001°07'0 0.0
2019-Sep-12 05:30N 50°48' W 001°07'0 0.0
2019-Sep-12 05:00N 50°48' W 001°07'0 0.0
2019-Sep-12 04:30N 50°48' W 001°07'0 0.0
2019-Sep-12 04:00N 50°48' W 001°07'0 0.0
2019-Sep-12 03:30N 50°48' W 001°07'0 0.0
2019-Sep-12 03:00N 50°48' W 001°07'0 0.0
2019-Sep-12 02:30N 50°48' W 001°07'0 0.0
2019-Sep-12 02:00N 50°48' W 001°07'0 0.0
2019-Sep-12 01:30N 50°48' W 001°07'0 0.0
2019-Sep-12 01:00N 50°48' W 001°07'0 0.0
2019-Sep-12 00:30N 50°48' W 001°07'0 0.0
2019-Sep-12 00:00N 50°48' W 001°07'0 0.0
2019-Sep-11 23:30N 50°48' W 001°07'0 0.0
2019-Sep-11 23:00N 50°48' W 001°07'0 0.0
2019-Sep-11 22:30N 50°48' W 001°07'0 0.0
2019-Sep-11 22:00N 50°48' W 001°07'0 0.0
2019-Sep-11 21:30N 50°48' W 001°07'0 0.0
2019-Sep-11 21:00N 50°48' W 001°07'0 0.0
2019-Sep-11 20:30N 50°48' W 001°07'0 0.0
2019-Sep-11 20:00N 50°48' W 001°07'0 0.0
2019-Sep-11 19:30N 50°48' W 001°07'0 0.0
2019-Sep-11 19:00N 50°48' W 001°07'0 0.0
2019-Sep-11 18:30N 50°48' W 001°07'0 0.0
2019-Sep-11 18:00N 50°48' W 001°07'0 0.0
2019-Sep-11 17:30N 50°48' W 001°07'0 0.0
2019-Sep-11 17:00N 50°48' W 001°07'0 0.0
2019-Sep-11 16:30N 50°48' W 001°07'0 0.0
2019-Sep-11 16:00N 50°48' W 001°07'0 0.0
2019-Sep-11 15:30N 50°48' W 001°07'0 0.0
2019-Sep-11 15:00N 50°48' W 001°07'0 0.0
2019-Sep-11 14:30N 50°48' W 001°07'0 0.0
2019-Sep-11 14:00N 50°48' W 001°07'0 0.0
2019-Sep-11 13:30N 50°48' W 001°07'0 0.0
2019-Sep-11 13:00N 50°48' W 001°07'0 0.0
2019-Sep-11 12:30N 50°48' W 001°07'0 0.0
2019-Sep-11 12:00N 50°48' W 001°07'0 0.0
2019-Sep-11 11:30N 50°48' W 001°07'0 0.0
2019-Sep-11 11:00N 50°48' W 001°07'0 0.0
2019-Sep-11 10:30N 50°48' W 001°07'0 0.0
2019-Sep-11 10:00N 50°48' W 001°07'0 0.0
2019-Sep-11 09:30N 50°48' W 001°07'0 0.0
2019-Sep-11 09:00N 50°48' W 001°07'0 0.0
2019-Sep-11 08:30N 50°48' W 001°07'0 0.0
2019-Sep-11 08:00N 50°48' W 001°07'0 0.0
2019-Sep-11 07:30N 50°48' W 001°07'0 0.0
2019-Sep-11 07:00N 50°48' W 001°07'0 0.0
2019-Sep-11 06:30N 50°48' W 001°07'0 0.0
2019-Sep-11 06:00N 50°48' W 001°07'0 0.0
2019-Sep-11 05:30N 50°48' W 001°07'0 0.0
2019-Sep-11 05:00N 50°48' W 001°07'0 0.0
2019-Sep-11 04:30N 50°48' W 001°07'0 0.0
2019-Sep-11 04:00N 50°48' W 001°07'0 0.0
2019-Sep-11 03:30N 50°48' W 001°07'0 0.0
2019-Sep-11 03:00N 50°48' W 001°07'0 0.0
2019-Sep-11 02:30N 50°48' W 001°07'0 0.0
2019-Sep-11 02:00N 50°48' W 001°07'0 0.0
2019-Sep-11 01:30N 50°48' W 001°07'0 0.0
2019-Sep-11 01:00N 50°48' W 001°07'0 0.0
2019-Sep-11 00:30N 50°48' W 001°07'0 0.0
2019-Sep-11 00:00N 50°48' W 001°07'0 0.0
2019-Sep-10 23:30N 50°48' W 001°07'0 0.0
2019-Sep-10 23:00N 50°48' W 001°07'0 0.0
2019-Sep-10 22:30N 50°48' W 001°07'0 0.0
2019-Sep-10 22:00N 50°48' W 001°07'0 0.0
2019-Sep-10 21:30N 50°48' W 001°07'0 0.0
2019-Sep-10 21:00N 50°48' W 001°07'0 0.0
2019-Sep-10 20:30N 50°48' W 001°07'0 0.0
2019-Sep-10 20:00N 50°48' W 001°07'0 0.0
2019-Sep-10 19:30N 50°48' W 001°07'0 0.0
2019-Sep-10 19:00N 50°48' W 001°07'0 0.0
2019-Sep-10 18:30N 50°48' W 001°07'0 0.0
2019-Sep-10 18:00N 50°48' W 001°07'0 0.0
2019-Sep-10 17:30N 50°48' W 001°07'0 0.0
2019-Sep-10 17:00N 50°48' W 001°07'0 0.0
2019-Sep-10 16:30N 50°48' W 001°07'0 0.0
2019-Sep-10 16:00N 50°48' W 001°07'0 0.0
2019-Sep-10 15:30N 50°48' W 001°07'0 0.0
2019-Sep-10 15:00N 50°48' W 001°07'0 0.0
2019-Sep-10 14:30N 50°48' W 001°07'0 0.0
2019-Sep-10 14:00N 50°48' W 001°07'0 0.0
2019-Sep-10 13:30N 50°48' W 001°07'0 0.0
2019-Sep-10 13:00N 50°48' W 001°07'0 0.0
2019-Sep-10 12:30N 50°48' W 001°07'0 0.0
2019-Sep-10 12:00N 50°48' W 001°07'0 0.0
2019-Sep-10 11:30N 50°48' W 001°07'0 0.0
2019-Sep-10 11:00N 50°48' W 001°07'0 0.0
2019-Sep-10 10:30N 50°48' W 001°07'0 0.0
2019-Sep-10 10:00N 50°48' W 001°07'0 0.0
2019-Sep-10 09:30N 50°48' W 001°07'0 0.0
2019-Sep-10 09:00N 50°48' W 001°07'0 0.0
2019-Sep-10 08:30N 50°48' W 001°07'0 0.0
2019-Sep-10 08:00N 50°48' W 001°07'0 0.0
2019-Sep-10 07:30N 50°48' W 001°07'0 0.0
2019-Sep-10 07:00N 50°48' W 001°07'0 0.0
2019-Sep-10 06:30N 50°48' W 001°07'0 0.0
2019-Sep-10 06:00N 50°48' W 001°07'0 0.0
2019-Sep-10 05:30N 50°48' W 001°07'0 0.0
2019-Sep-10 05:01N 50°48' W 001°07'0 0.0
2019-Sep-10 04:30N 50°48' W 001°07'0 0.0
2019-Sep-10 04:00N 50°48' W 001°07'0 0.0
2019-Sep-10 03:30N 50°48' W 001°07'0 0.0
2019-Sep-10 03:00N 50°48' W 001°07'0 0.0
2019-Sep-10 02:30N 50°48' W 001°07'0 0.0
2019-Sep-10 02:00N 50°48' W 001°07'0 0.0
2019-Sep-10 01:30N 50°48' W 001°07'0 0.0
2019-Sep-10 01:00N 50°48' W 001°07'0 0.0
2019-Sep-10 00:30N 50°48' W 001°07'0 0.0
2019-Sep-10 00:00N 50°48' W 001°07'0 0.0
2019-Sep-09 23:30N 50°48' W 001°07'0 0.0
2019-Sep-09 23:00N 50°48' W 001°07'0 0.0
2019-Sep-09 22:31N 50°48' W 001°07'0 0.0
2019-Sep-09 22:00N 50°48' W 001°07'0 0.0
2019-Sep-09 21:30N 50°48' W 001°07'0 0.0
2019-Sep-09 21:01N 50°48' W 001°07'0 0.0
2019-Sep-09 20:30N 50°48' W 001°07'0 0.0
2019-Sep-09 20:00N 50°48' W 001°07'0 0.0
2019-Sep-09 19:30N 50°48' W 001°07'0 0.0
2019-Sep-09 19:00N 50°48' W 001°07'0 0.0
2019-Sep-09 18:30N 50°48' W 001°07'0 0.0
2019-Sep-09 18:01N 50°48' W 001°07'0 0.0
2019-Sep-09 17:30N 50°48' W 001°07'0 0.0
2019-Sep-09 17:00N 50°48' W 001°07'0 0.0
2019-Sep-09 16:30N 50°48' W 001°07'0 0.0
2019-Sep-09 16:00N 50°48' W 001°07'0 0.0
2019-Sep-09 15:30N 50°48' W 001°07'0 0.0
2019-Sep-09 15:00N 50°48' W 001°07'0 0.0
2019-Sep-09 14:30N 50°48' W 001°07'0 0.0
2019-Sep-09 14:00N 50°48' W 001°07'0 0.0
2019-Sep-09 13:30N 50°48' W 001°07'0 0.0
2019-Sep-09 13:00N 50°48' W 001°07'0 0.0
2019-Sep-09 12:30N 50°48' W 001°07'0 0.0
2019-Sep-09 12:00N 50°48' W 001°07'0 0.0
2019-Sep-09 11:30N 50°48' W 001°07'0 0.0
2019-Sep-09 11:00N 50°48' W 001°07'0 0.0
2019-Sep-09 10:30N 50°48' W 001°07'0 0.0
2019-Sep-09 10:00N 50°48' W 001°07'0 0.0
2019-Sep-09 09:30N 50°48' W 001°07'0 0.0
2019-Sep-09 09:00N 50°48' W 001°07'0 0.0
2019-Sep-09 08:30N 50°48' W 001°07'0 0.3
2019-Sep-09 08:01N 50°48' W 001°07'3 6.6
2019-Sep-09 07:30N 50°45' W 001°04'4 7.1
2019-Sep-09 07:00N 50°42' W 001°00'3 6.6
2019-Sep-09 06:29N 50°40' W 000°56'5 5.4
2019-Sep-09 05:33N 50°37' W 000°49'0 5.6
2019-Sep-09 05:29N 50°37' W 000°50'3 4.7
2019-Sep-09 04:54N 50°36' W 000°54'5 5.3
2019-Sep-09 04:01N 50°35' W 001°01'0 5.7
2019-Sep-09 04:00N 50°35' W 001°01'3 5.5
2019-Sep-09 03:30N 50°33' W 001°04'3 6.4
2019-Sep-09 02:59N 50°31' W 001°08'  

Dump ship's entire track history